createdAt,value
2018-07-09T00:00:16.549Z,1.00
2018-07-09T00:01:16.562Z,0.80
2018-07-09T00:02:16.524Z,1.10
2018-07-09T00:03:16.517Z,1.00
2018-07-09T00:04:16.503Z,0.80
2018-07-09T00:05:16.493Z,1.00
2018-07-09T00:06:16.533Z,0.90
2018-07-09T00:07:16.507Z,0.80
2018-07-09T00:08:16.460Z,1.10
2018-07-09T00:09:16.449Z,1.00
2018-07-09T00:10:16.438Z,0.70
2018-07-09T00:11:16.428Z,1.10
2018-07-09T00:12:16.414Z,1.20
2018-07-09T00:13:16.441Z,1.00
2018-07-09T00:14:16.393Z,1.00
2018-07-09T00:15:16.383Z,1.30
2018-07-09T00:16:16.376Z,1.20
2018-07-09T00:17:16.366Z,1.20
2018-07-09T00:18:16.353Z,0.80
2018-07-09T00:19:16.377Z,1.00
2018-07-09T00:20:16.329Z,0.90
2018-07-09T00:21:16.317Z,0.90
2018-07-09T00:22:16.306Z,1.60
2018-07-09T00:23:16.296Z,0.90
2018-07-09T00:24:16.284Z,0.90
2018-07-09T00:25:16.305Z,0.80
2018-07-09T00:26:16.263Z,1.00
2018-07-09T00:27:16.250Z,1.10
2018-07-09T00:28:16.250Z,1.30
2018-07-09T00:29:16.230Z,1.00
2018-07-09T00:30:16.218Z,0.80
2018-07-09T00:31:16.228Z,1.00
2018-07-09T00:32:16.249Z,0.90
2018-07-09T00:33:16.188Z,0.80
2018-07-09T00:34:16.176Z,1.00
2018-07-09T00:35:16.162Z,0.90
2018-07-09T00:36:16.153Z,0.90
2018-07-09T00:37:16.167Z,0.90
2018-07-09T00:38:16.129Z,0.70
2018-07-09T00:39:16.118Z,1.10
2018-07-09T00:40:16.112Z,1.20
2018-07-09T00:41:16.096Z,1.00
2018-07-09T00:42:16.085Z,1.20
2018-07-09T00:43:16.100Z,1.10
2018-07-09T00:44:16.065Z,1.10
2018-07-09T00:45:16.059Z,0.60
2018-07-09T00:46:16.044Z,0.80
2018-07-09T00:47:16.032Z,0.90
2018-07-09T00:48:16.024Z,1.10
2018-07-09T00:49:16.028Z,0.60
2018-07-09T00:50:15.999Z,0.60
2018-07-09T00:51:15.990Z,0.80
2018-07-09T00:52:15.977Z,1.10
2018-07-09T00:53:15.965Z,0.90
2018-07-09T00:54:15.954Z,1.20
2018-07-09T00:55:15.975Z,0.90
2018-07-09T00:56:15.936Z,1.00
2018-07-09T00:57:15.921Z,1.30
2018-07-09T00:58:15.910Z,1.10
2018-07-09T00:59:15.903Z,1.20
2018-07-09T01:00:15.890Z,1.00
2018-07-09T01:01:15.900Z,1.10
2018-07-09T01:02:15.866Z,0.90
2018-07-09T01:03:15.855Z,1.10
2018-07-09T01:04:15.843Z,1.00
2018-07-09T01:05:15.834Z,1.30
2018-07-09T01:06:15.825Z,0.90
2018-07-09T01:07:15.832Z,1.10
2018-07-09T01:08:15.801Z,1.00
2018-07-09T01:09:15.792Z,1.00
2018-07-09T01:10:15.787Z,0.70
2018-07-09T01:11:15.773Z,1.40
2018-07-09T01:12:15.756Z,1.10
2018-07-09T01:13:15.775Z,0.80
2018-07-09T01:14:15.738Z,0.90
2018-07-09T01:15:15.725Z,0.90
2018-07-09T01:16:15.713Z,1.80
2018-07-09T01:17:15.701Z,1.40
2018-07-09T01:18:15.692Z,1.00
2018-07-09T01:19:15.705Z,1.10
2018-07-09T01:20:15.704Z,1.20
2018-07-09T01:21:15.663Z,0.90
2018-07-09T01:22:15.650Z,1.10
2018-07-09T01:23:15.638Z,1.00
2018-07-09T01:24:15.626Z,0.90
2018-07-09T01:25:15.643Z,0.90
2018-07-09T01:26:15.605Z,1.10
2018-07-09T01:27:15.596Z,0.90
2018-07-09T01:28:15.583Z,1.20
2018-07-09T01:29:15.666Z,1.10
2018-07-09T01:30:15.563Z,1.00
2018-07-09T01:31:15.564Z,1.00
2018-07-09T01:32:15.539Z,0.90
2018-07-09T01:33:15.528Z,1.00
2018-07-09T01:34:15.518Z,1.00
2018-07-09T01:35:15.506Z,1.10
2018-07-09T01:36:15.522Z,0.80
2018-07-09T01:37:15.489Z,1.10
2018-07-09T01:38:15.475Z,0.90
2018-07-09T01:39:15.463Z,1.10
2018-07-09T01:40:15.453Z,0.90
2018-07-09T01:41:15.439Z,1.20
2018-07-09T01:42:15.454Z,1.90
2018-07-09T01:43:15.418Z,1.10
2018-07-09T01:44:15.407Z,1.50
2018-07-09T01:45:15.396Z,1.50
2018-07-09T01:46:15.386Z,1.20
2018-07-09T01:47:15.375Z,1.10
2018-07-09T01:48:15.408Z,1.50
2018-07-09T01:49:15.351Z,1.40
2018-07-09T01:50:15.342Z,1.60
2018-07-09T01:51:15.330Z,1.00
2018-07-09T01:52:15.318Z,1.30
2018-07-09T01:53:15.310Z,1.30
2018-07-09T01:54:15.323Z,1.10
2018-07-09T01:55:15.284Z,1.20
2018-07-09T01:56:15.272Z,1.70
2018-07-09T01:57:15.263Z,1.60
2018-07-09T01:58:15.251Z,1.10
2018-07-09T01:59:15.252Z,1.00
2018-07-09T02:00:15.250Z,1.00
2018-07-09T02:01:15.220Z,1.20
2018-07-09T02:02:15.209Z,1.10
2018-07-09T02:03:15.197Z,1.30
2018-07-09T02:04:15.185Z,1.30
2018-07-09T02:05:15.176Z,1.30
2018-07-09T02:06:15.217Z,1.00
2018-07-09T02:07:15.150Z,1.20
2018-07-09T02:08:15.141Z,1.30
2018-07-09T02:09:15.130Z,1.20
2018-07-09T02:10:15.130Z,1.40
2018-07-09T02:11:15.106Z,1.30
2018-07-09T02:12:15.113Z,1.20
2018-07-09T02:13:15.085Z,1.10
2018-07-09T02:14:15.076Z,1.30
2018-07-09T02:15:15.060Z,1.30
2018-07-09T02:16:15.052Z,1.20
2018-07-09T02:17:15.042Z,1.20
2018-07-09T02:18:15.042Z,1.40
2018-07-09T02:19:15.023Z,1.70
2018-07-09T02:20:15.007Z,1.00
2018-07-09T02:21:15.039Z,1.10
2018-07-09T02:22:14.981Z,1.20
2018-07-09T02:23:14.996Z,1.30
2018-07-09T02:24:14.958Z,1.00
2018-07-09T02:25:14.964Z,1.00
2018-07-09T02:26:14.937Z,1.50
2018-07-09T02:27:14.926Z,1.10
2018-07-09T02:28:14.915Z,1.10
2018-07-09T02:29:14.933Z,1.60
2018-07-09T02:30:14.891Z,1.10
2018-07-09T02:31:14.878Z,1.40
2018-07-09T02:32:14.873Z,0.90
2018-07-09T02:33:14.871Z,1.70
2018-07-09T02:34:14.845Z,1.10
2018-07-09T02:35:14.857Z,1.00
2018-07-09T02:36:14.825Z,1.50
2018-07-09T02:37:14.811Z,1.00
2018-07-09T02:38:14.799Z,1.30
2018-07-09T02:39:14.790Z,1.20
2018-07-09T02:40:14.781Z,1.30
2018-07-09T02:41:14.791Z,1.30
2018-07-09T02:42:14.758Z,1.00
2018-07-09T02:43:14.741Z,1.90
2018-07-09T02:44:14.731Z,1.30
2018-07-09T02:45:14.722Z,1.30
2018-07-09T02:46:14.708Z,1.00
2018-07-09T02:47:14.721Z,0.90
2018-07-09T02:48:14.688Z,1.40
2018-07-09T02:49:14.745Z,1.10
2018-07-09T02:50:14.678Z,1.40
2018-07-09T02:51:14.656Z,1.40
2018-07-09T02:52:14.644Z,1.20
2018-07-09T02:53:14.647Z,1.00
2018-07-09T02:54:14.618Z,1.30
2018-07-09T02:55:14.611Z,1.30
2018-07-09T02:56:14.601Z,1.40
2018-07-09T02:57:14.586Z,1.20
2018-07-09T02:58:14.584Z,1.20
2018-07-09T02:59:14.592Z,1.00
2018-07-09T03:00:14.554Z,1.10
2018-07-09T03:01:14.658Z,1.10
2018-07-09T03:02:14.532Z,1.50
2018-07-09T03:03:14.518Z,1.20
2018-07-09T03:04:14.509Z,0.90
2018-07-09T03:05:14.521Z,1.00
2018-07-09T03:06:14.514Z,1.10
2018-07-09T03:07:14.483Z,1.30
2018-07-09T03:08:14.464Z,1.20
2018-07-09T03:09:14.453Z,1.00
2018-07-09T03:10:14.447Z,1.20
2018-07-09T03:11:14.451Z,1.40
2018-07-09T03:12:14.423Z,1.10
2018-07-09T03:13:14.408Z,1.10
2018-07-09T03:14:14.397Z,1.40
2018-07-09T03:15:14.386Z,1.50
2018-07-09T03:16:14.377Z,1.30
2018-07-09T03:17:14.409Z,1.40
2018-07-09T03:18:14.356Z,1.30
2018-07-09T03:19:14.411Z,1.20
2018-07-09T03:20:14.332Z,1.00
2018-07-09T03:21:14.320Z,1.00
2018-07-09T03:22:14.311Z,1.40
2018-07-09T03:23:14.323Z,1.70
2018-07-09T03:24:14.289Z,1.40
2018-07-09T03:25:14.280Z,1.20
2018-07-09T03:26:14.268Z,1.40
2018-07-09T03:27:14.259Z,1.30
2018-07-09T03:28:14.254Z,1.10
2018-07-09T03:29:14.255Z,1.30
2018-07-09T03:30:14.230Z,1.40
2018-07-09T03:31:14.213Z,1.20
2018-07-09T03:32:14.202Z,1.20
2018-07-09T03:33:14.194Z,1.50
2018-07-09T03:34:14.181Z,1.00
2018-07-09T03:35:14.198Z,1.50
2018-07-09T03:36:14.160Z,1.20
2018-07-09T03:37:14.147Z,1.60
2018-07-09T03:38:14.138Z,2.10
2018-07-09T03:39:14.139Z,1.20
2018-07-09T03:40:14.116Z,1.30
2018-07-09T03:41:14.124Z,1.50
2018-07-09T03:42:14.094Z,1.00
2018-07-09T03:43:14.083Z,1.70
2018-07-09T03:44:14.071Z,1.70
2018-07-09T03:45:14.064Z,1.60
2018-07-09T03:46:14.050Z,1.10
2018-07-09T03:47:14.059Z,1.50
2018-07-09T03:48:14.029Z,1.90
2018-07-09T03:49:14.017Z,1.20
2018-07-09T03:50:14.005Z,1.70
2018-07-09T03:51:13.994Z,1.50
2018-07-09T03:52:13.992Z,1.70
2018-07-09T03:53:14.003Z,1.60
2018-07-09T03:54:13.959Z,1.40
2018-07-09T03:55:13.948Z,1.30
2018-07-09T03:56:13.938Z,1.70
2018-07-09T03:57:13.927Z,1.70
2018-07-09T03:58:13.918Z,1.30
2018-07-09T03:59:13.929Z,1.70
2018-07-09T04:00:13.895Z,1.50
2018-07-09T04:01:13.882Z,1.60
2018-07-09T04:02:13.900Z,2.30
2018-07-09T04:03:13.863Z,1.80
2018-07-09T04:04:13.850Z,1.90
2018-07-09T04:05:13.916Z,1.80
2018-07-09T04:06:13.829Z,2.00
2018-07-09T04:07:13.815Z,1.80
2018-07-09T04:08:13.805Z,1.70
2018-07-09T04:09:13.795Z,1.90
2018-07-09T04:10:13.783Z,1.40
2018-07-09T04:11:13.802Z,2.00
2018-07-09T04:12:13.761Z,1.10
2018-07-09T04:13:13.750Z,1.40
2018-07-09T04:14:13.742Z,1.90
2018-07-09T04:15:13.729Z,1.70
2018-07-09T04:16:13.718Z,1.60
2018-07-09T04:17:13.727Z,1.80
2018-07-09T04:18:13.695Z,1.80
2018-07-09T04:19:13.684Z,1.80
2018-07-09T04:20:13.673Z,1.70
2018-07-09T04:21:13.666Z,1.80
2018-07-09T04:22:13.653Z,1.90
2018-07-09T04:23:13.659Z,1.60
2018-07-09T04:24:13.628Z,1.60
2018-07-09T04:25:13.618Z,1.40
2018-07-09T04:26:13.627Z,1.90
2018-07-09T04:27:13.595Z,2.00
2018-07-09T04:28:13.583Z,1.50
2018-07-09T04:29:13.598Z,1.50
2018-07-09T04:30:13.561Z,1.80
2018-07-09T04:31:13.552Z,1.90
2018-07-09T04:32:13.540Z,1.70
2018-07-09T04:33:13.534Z,1.90
2018-07-09T04:34:13.628Z,1.40
2018-07-09T04:35:13.537Z,1.50
2018-07-09T04:36:13.496Z,1.30
2018-07-09T04:37:13.485Z,1.60
2018-07-09T04:38:13.492Z,1.90
2018-07-09T04:39:13.466Z,1.60
2018-07-09T04:40:13.458Z,2.30
2018-07-09T04:41:13.461Z,1.80
2018-07-09T04:42:13.431Z,1.60
2018-07-09T04:43:13.461Z,1.30
2018-07-09T04:44:13.410Z,1.50
2018-07-09T04:45:13.398Z,1.50
2018-07-09T04:46:13.384Z,1.60
2018-07-09T04:47:13.404Z,1.80
2018-07-09T04:48:13.363Z,1.70
2018-07-09T04:49:13.358Z,1.30
2018-07-09T04:50:13.348Z,1.90
2018-07-09T04:51:13.338Z,1.70
2018-07-09T04:52:13.321Z,2.40
2018-07-09T04:53:13.328Z,1.70
2018-07-09T04:54:13.301Z,2.40
2018-07-09T04:55:13.291Z,1.40
2018-07-09T04:56:13.277Z,1.40
2018-07-09T04:57:13.264Z,2.00
2018-07-09T04:58:13.253Z,1.80
2018-07-09T04:59:13.264Z,1.50
2018-07-09T05:00:13.232Z,1.40
2018-07-09T05:01:13.226Z,1.60
2018-07-09T05:02:13.212Z,1.90
2018-07-09T05:03:13.199Z,2.30
2018-07-09T05:04:13.195Z,2.10
2018-07-09T05:05:13.205Z,1.50
2018-07-09T05:06:13.166Z,1.80
2018-07-09T05:07:13.157Z,1.70
2018-07-09T05:08:13.149Z,1.80
2018-07-09T05:09:13.137Z,1.90
2018-07-09T05:10:13.126Z,1.70
2018-07-09T05:11:13.134Z,1.50
2018-07-09T05:12:13.104Z,2.20
2018-07-09T05:13:13.091Z,2.40
2018-07-09T05:14:13.082Z,1.70
2018-07-09T05:15:13.069Z,1.70
2018-07-09T05:16:13.065Z,1.80
2018-07-09T05:17:13.072Z,2.40
2018-07-09T05:18:13.037Z,1.60
2018-07-09T05:19:13.032Z,2.60
2018-07-09T05:20:13.018Z,1.60
2018-07-09T05:21:13.009Z,1.50
2018-07-09T05:22:12.999Z,2.10
2018-07-09T05:23:13.010Z,1.60
2018-07-09T05:24:12.972Z,1.60
2018-07-09T05:25:12.967Z,1.60
2018-07-09T05:26:12.953Z,1.80
2018-07-09T05:27:12.942Z,1.80
2018-07-09T05:28:12.928Z,1.80
2018-07-09T05:29:12.965Z,1.50
2018-07-09T05:30:12.908Z,1.60
2018-07-09T05:31:12.896Z,1.70
2018-07-09T05:32:12.885Z,1.30
2018-07-09T05:33:12.882Z,1.70
2018-07-09T05:34:12.864Z,1.90
2018-07-09T05:35:12.879Z,1.70
2018-07-09T05:36:12.844Z,1.30
2018-07-09T05:37:12.832Z,1.50
2018-07-09T05:38:12.820Z,1.80
2018-07-09T05:39:12.812Z,1.90
2018-07-09T05:40:12.803Z,2.00
2018-07-09T05:41:12.815Z,1.70
2018-07-09T05:42:12.780Z,1.90
2018-07-09T05:43:12.772Z,1.30
2018-07-09T05:44:12.758Z,1.70
2018-07-09T05:45:12.746Z,1.40
2018-07-09T05:46:12.736Z,1.60
2018-07-09T05:47:12.744Z,1.40
2018-07-09T05:48:12.713Z,1.80
2018-07-09T05:49:12.707Z,1.60
2018-07-09T05:50:12.696Z,1.70
2018-07-09T05:51:12.683Z,1.60
2018-07-09T05:52:12.674Z,1.20
2018-07-09T05:53:12.685Z,1.80
2018-07-09T05:54:12.657Z,2.00
2018-07-09T05:55:12.640Z,1.90
2018-07-09T05:56:12.632Z,1.70
2018-07-09T05:57:12.623Z,1.60
2018-07-09T05:58:12.610Z,1.50
2018-07-09T05:59:12.624Z,1.80
2018-07-09T06:00:12.595Z,1.70
2018-07-09T06:01:12.585Z,1.40
2018-07-09T06:02:12.566Z,1.70
2018-07-09T06:03:12.559Z,1.40
2018-07-09T06:04:12.553Z,1.60
2018-07-09T06:05:12.563Z,1.50
2018-07-09T06:06:12.526Z,1.40
2018-07-09T06:07:12.514Z,1.60
2018-07-09T06:08:12.504Z,1.70
2018-07-09T06:09:12.496Z,1.70
2018-07-09T06:10:12.478Z,1.50
2018-07-09T06:11:12.497Z,1.40
2018-07-09T06:12:12.458Z,1.70
2018-07-09T06:13:12.450Z,1.80
2018-07-09T06:14:12.439Z,1.50
2018-07-09T06:15:12.426Z,1.50
2018-07-09T06:16:12.415Z,1.30
2018-07-09T06:17:12.432Z,1.20
2018-07-09T06:18:12.393Z,1.40
2018-07-09T06:19:12.429Z,1.60
2018-07-09T06:20:12.375Z,1.40
2018-07-09T06:21:12.367Z,1.30
2018-07-09T06:22:12.351Z,1.20
2018-07-09T06:23:12.371Z,1.30
2018-07-09T06:24:12.331Z,0.90
2018-07-09T06:25:12.323Z,1.30
2018-07-09T06:26:12.312Z,1.70
2018-07-09T06:27:12.302Z,1.10
2018-07-09T06:28:12.291Z,1.30
2018-07-09T06:29:12.298Z,1.10
2018-07-09T06:30:12.267Z,1.00
2018-07-09T06:31:12.257Z,1.60
2018-07-09T06:32:12.256Z,1.30
2018-07-09T06:33:12.240Z,1.20
2018-07-09T06:34:12.229Z,1.40
2018-07-09T06:35:12.244Z,1.50
2018-07-09T06:36:12.216Z,1.00
2018-07-09T06:37:12.193Z,1.30
2018-07-09T06:38:12.181Z,1.40
2018-07-09T06:39:12.172Z,1.20
2018-07-09T06:40:12.161Z,1.10
2018-07-09T06:41:12.176Z,1.00
2018-07-09T06:42:12.141Z,1.10
2018-07-09T06:43:12.129Z,1.40
2018-07-09T06:44:12.119Z,1.10
2018-07-09T06:45:12.111Z,1.20
2018-07-09T06:46:12.099Z,1.00
2018-07-09T06:47:12.110Z,1.00
2018-07-09T06:48:12.408Z,0.90
2018-07-09T06:49:12.062Z,1.30
2018-07-09T06:50:12.062Z,1.10
2018-07-09T06:51:12.045Z,0.80
2018-07-09T06:52:12.032Z,0.90
2018-07-09T06:53:12.048Z,1.00
2018-07-09T06:54:12.010Z,0.90
2018-07-09T06:55:12.000Z,0.90
2018-07-09T06:56:11.993Z,1.00
2018-07-09T06:57:11.981Z,1.60
2018-07-09T06:58:11.970Z,1.20
2018-07-09T06:59:11.979Z,1.20
2018-07-09T07:00:11.953Z,1.00
2018-07-09T07:01:11.940Z,0.90
2018-07-09T07:02:11.990Z,1.10
2018-07-09T07:03:11.918Z,1.00
2018-07-09T07:04:11.909Z,0.80
2018-07-09T07:05:11.921Z,0.80
2018-07-09T07:06:11.888Z,1.10
2018-07-09T07:07:11.880Z,0.90
2018-07-09T07:08:11.866Z,1.00
2018-07-09T07:09:11.955Z,1.00
2018-07-09T07:10:11.892Z,1.30
2018-07-09T07:11:11.865Z,1.10
2018-07-09T07:12:11.840Z,1.30
2018-07-09T07:13:11.834Z,1.00
2018-07-09T07:14:11.832Z,1.10
2018-07-09T07:15:11.796Z,0.70
2018-07-09T07:16:11.787Z,0.70
2018-07-09T07:17:11.810Z,1.00
2018-07-09T07:18:11.769Z,0.90
2018-07-09T07:19:11.754Z,0.60
2018-07-09T07:20:11.744Z,0.80
2018-07-09T07:21:11.735Z,0.80
2018-07-09T07:22:11.746Z,1.00
2018-07-09T07:23:11.713Z,0.80
2018-07-09T07:24:11.711Z,1.00
2018-07-09T07:25:11.695Z,1.00
2018-07-09T07:26:11.683Z,1.40
2018-07-09T07:27:11.673Z,1.00
2018-07-09T07:28:11.689Z,0.90
2018-07-09T07:29:11.711Z,0.80
2018-07-09T07:30:11.643Z,1.20
2018-07-09T07:31:11.631Z,1.00
2018-07-09T07:32:11.623Z,0.80
2018-07-09T07:33:11.677Z,0.60
2018-07-09T07:34:11.623Z,0.80
2018-07-09T07:35:11.592Z,0.70
2018-07-09T07:36:11.582Z,1.10
2018-07-09T07:37:11.575Z,0.80
2018-07-09T07:38:11.562Z,1.00
2018-07-09T07:39:11.552Z,0.90
2018-07-09T07:40:11.567Z,1.30
2018-07-09T07:41:11.536Z,0.80
2018-07-09T07:42:11.524Z,0.90
2018-07-09T07:43:11.523Z,1.00
2018-07-09T07:44:11.552Z,1.00
2018-07-09T07:45:11.495Z,1.00
2018-07-09T07:46:11.510Z,1.10
2018-07-09T07:47:11.474Z,1.00
2018-07-09T07:48:11.466Z,1.20
2018-07-09T07:49:11.460Z,1.20
2018-07-09T07:50:11.521Z,1.00
2018-07-09T07:51:11.434Z,1.40
2018-07-09T07:52:11.446Z,1.30
2018-07-09T07:53:11.418Z,0.90
2018-07-09T07:54:11.407Z,1.40
2018-07-09T07:55:11.405Z,1.50
2018-07-09T07:56:11.387Z,1.20
2018-07-09T07:57:11.378Z,1.20
2018-07-09T07:58:11.389Z,1.20
2018-07-09T07:59:11.356Z,1.10
2018-07-09T08:00:11.351Z,1.00
2018-07-09T08:01:11.345Z,0.80
2018-07-09T08:02:11.331Z,0.80
2018-07-09T08:03:11.318Z,1.00
2018-07-09T08:04:11.333Z,0.90
2018-07-09T08:05:11.298Z,1.30
2018-07-09T08:06:11.289Z,1.40
2018-07-09T08:07:11.280Z,1.00
2018-07-09T08:08:11.292Z,1.20
2018-07-09T08:09:11.261Z,1.00
2018-07-09T08:10:11.314Z,0.90
2018-07-09T08:11:11.511Z,1.00
2018-07-09T08:13:00.557Z,1.00
2018-07-09T08:13:27.990Z,2.00
2018-07-09T08:14:12.211Z,0.90
2018-07-09T08:15:11.200Z,0.90
2018-07-09T08:16:11.216Z,1.00
2018-07-09T08:17:11.187Z,1.00
2018-07-09T08:18:11.178Z,1.30
2018-07-09T08:19:11.162Z,0.80
2018-07-09T08:20:11.152Z,0.90
2018-07-09T08:21:11.142Z,0.90
2018-07-09T08:22:11.184Z,0.70
2018-07-09T08:23:11.124Z,1.00
2018-07-09T08:24:11.119Z,0.80
2018-07-09T08:25:11.273Z,0.70
2018-07-09T08:26:11.098Z,0.70
2018-07-09T08:27:11.430Z,0.70
2018-07-09T08:28:11.571Z,1.00
2018-07-09T08:29:11.073Z,0.80
2018-07-09T08:30:11.063Z,0.70
2018-07-09T08:31:11.091Z,0.80
2018-07-09T08:32:11.045Z,0.80
2018-07-09T08:33:11.042Z,0.90
2018-07-09T08:34:11.051Z,0.70
2018-07-09T08:35:11.014Z,0.70
2018-07-09T08:36:11.004Z,0.80
2018-07-09T08:37:10.998Z,1.00
2018-07-09T08:38:10.991Z,0.90
2018-07-09T08:39:10.985Z,0.80
2018-07-09T08:40:10.993Z,0.70
2018-07-09T08:41:10.957Z,0.90
2018-07-09T08:42:10.947Z,1.00
2018-07-09T08:43:10.934Z,0.80
2018-07-09T08:44:10.938Z,0.80
2018-07-09T08:45:10.929Z,0.60
2018-07-09T08:46:10.939Z,0.90
2018-07-09T08:47:10.896Z,0.90
2018-07-09T08:48:10.905Z,0.90
2018-07-09T08:49:10.924Z,0.80
2018-07-09T08:50:10.871Z,1.00
2018-07-09T08:51:10.865Z,0.70
2018-07-09T08:52:10.870Z,1.00
2018-07-09T08:53:10.842Z,0.80
2018-07-09T08:54:10.829Z,0.90
2018-07-09T08:55:10.848Z,0.90
2018-07-09T08:56:10.813Z,1.20
2018-07-09T08:57:10.806Z,0.70
2018-07-09T08:58:10.823Z,0.80
2018-07-09T08:59:10.783Z,0.80
2018-07-09T09:00:10.780Z,0.80
2018-07-09T09:01:10.767Z,1.00
2018-07-09T09:02:11.213Z,0.70
2018-07-09T09:03:10.751Z,0.80
2018-07-09T09:04:10.769Z,0.80
2018-07-09T09:05:10.739Z,0.70
2018-07-09T09:06:10.724Z,1.00
2018-07-09T09:07:10.711Z,0.80
2018-07-09T09:08:10.705Z,1.00
2018-07-09T09:09:10.695Z,0.70
2018-07-09T09:10:10.841Z,0.90
2018-07-09T09:11:10.722Z,0.70
2018-07-09T09:12:10.661Z,0.60
2018-07-09T09:13:10.681Z,0.70
2018-07-09T09:14:10.644Z,0.70
2018-07-09T09:15:10.637Z,0.80
2018-07-09T09:16:10.643Z,0.70
2018-07-09T09:17:10.620Z,1.20
2018-07-09T09:18:10.605Z,1.10
2018-07-09T09:19:10.594Z,1.00
2018-07-09T09:20:10.608Z,1.10
2018-07-09T09:21:10.576Z,0.60
2018-07-09T09:22:10.566Z,0.90
2018-07-09T09:23:10.559Z,0.60
2018-07-09T09:24:10.548Z,0.60
2018-07-09T09:25:10.537Z,0.80
2018-07-09T09:26:10.552Z,0.60
2018-07-09T09:27:10.519Z,0.90
2018-07-09T09:28:10.511Z,0.70
2018-07-09T09:29:10.500Z,0.70
2018-07-09T09:30:10.491Z,0.90
2018-07-09T09:31:10.541Z,1.10
2018-07-09T09:32:10.504Z,0.80
2018-07-09T09:33:10.466Z,0.50
2018-07-09T09:34:10.468Z,0.90
2018-07-09T09:35:10.449Z,0.80
2018-07-09T09:36:10.438Z,0.50
2018-07-09T09:37:10.430Z,0.60
2018-07-09T09:38:10.441Z,0.70
2018-07-09T09:39:10.409Z,0.80
2018-07-09T09:40:10.401Z,0.70
2018-07-09T09:41:10.396Z,0.80
2018-07-09T09:42:10.384Z,0.80
2018-07-09T09:43:10.420Z,0.80
2018-07-09T09:44:10.385Z,0.60
2018-07-09T09:45:10.363Z,1.00
2018-07-09T09:46:10.348Z,0.90
2018-07-09T09:47:10.347Z,0.60
2018-07-09T09:48:10.328Z,0.60
2018-07-09T09:49:10.319Z,0.60
2018-07-09T09:50:10.338Z,0.60
2018-07-09T09:51:10.300Z,0.70
2018-07-09T09:52:10.290Z,1.30
2018-07-09T09:53:10.290Z,0.60
2018-07-09T09:54:10.280Z,0.70
2018-07-09T09:55:10.271Z,1.00
2018-07-09T09:56:10.280Z,0.70
2018-07-09T09:57:10.247Z,0.70
2018-07-09T09:58:10.244Z,0.50
2018-07-09T09:59:10.232Z,0.60
2018-07-09T10:00:10.227Z,0.80
2018-07-09T10:01:10.216Z,0.70
2018-07-09T10:02:10.237Z,0.50
2018-07-09T10:03:10.241Z,0.80
2018-07-09T10:04:10.192Z,0.80
2018-07-09T10:05:10.177Z,0.70
2018-07-09T10:06:10.228Z,0.70
2018-07-09T10:07:10.164Z,0.70
2018-07-09T10:08:10.176Z,0.40
2018-07-09T10:09:10.142Z,0.70
2018-07-09T10:10:10.135Z,0.60
2018-07-09T10:11:10.124Z,0.70
2018-07-09T10:12:10.116Z,0.40
2018-07-09T10:13:10.125Z,0.80
2018-07-09T10:14:10.125Z,0.50
2018-07-09T10:15:10.089Z,0.60
2018-07-09T10:16:10.096Z,0.80
2018-07-09T10:17:10.073Z,0.50
2018-07-09T10:18:10.246Z,0.50
2018-07-09T10:19:10.301Z,0.60
2018-07-09T10:20:10.072Z,0.60
2018-07-09T10:21:10.040Z,1.10
2018-07-09T10:22:10.029Z,0.70
2018-07-09T10:23:10.196Z,0.60
2018-07-09T10:24:10.011Z,0.90
2018-07-09T10:25:10.002Z,0.50
2018-07-09T10:26:10.022Z,0.60
2018-07-09T10:27:09.986Z,0.70
2018-07-09T10:28:09.978Z,0.40
2018-07-09T10:29:09.979Z,0.50
2018-07-09T10:30:09.958Z,0.70
2018-07-09T10:31:09.951Z,0.60
2018-07-09T10:32:09.989Z,0.60
2018-07-09T10:33:09.938Z,0.80
2018-07-09T10:34:09.927Z,0.40
2018-07-09T10:35:09.919Z,0.60
2018-07-09T10:36:09.910Z,0.70
2018-07-09T10:37:09.898Z,0.90
2018-07-09T10:38:09.921Z,0.40
2018-07-09T10:39:09.883Z,0.60
2018-07-09T10:40:09.873Z,0.60
2018-07-09T10:41:09.864Z,0.60
2018-07-09T10:42:09.869Z,0.70
2018-07-09T10:43:09.846Z,0.50
2018-07-09T10:44:09.865Z,0.70
2018-07-09T10:45:09.831Z,0.60
2018-07-09T10:46:09.818Z,0.50
2018-07-09T10:47:09.831Z,0.40
2018-07-09T10:48:09.804Z,0.60
2018-07-09T10:49:09.791Z,0.70
2018-07-09T10:50:09.807Z,0.60
2018-07-09T10:51:09.772Z,0.50
2018-07-09T10:52:09.763Z,0.80
2018-07-09T10:53:09.752Z,0.60
2018-07-09T10:54:09.742Z,0.60
2018-07-09T10:55:09.761Z,0.90
2018-07-09T10:56:09.747Z,0.80
2018-07-09T10:57:09.713Z,0.70
2018-07-09T10:58:09.705Z,0.60
2018-07-09T10:59:09.692Z,0.70
2018-07-09T11:00:09.681Z,0.60
2018-07-09T11:01:09.724Z,0.50
2018-07-09T11:02:09.691Z,0.70
2018-07-09T11:03:09.653Z,0.60
2018-07-09T11:04:09.643Z,0.60
2018-07-09T11:05:09.632Z,0.70
2018-07-09T11:06:09.622Z,0.80
2018-07-09T11:07:09.616Z,0.80
2018-07-09T11:08:09.625Z,0.70
2018-07-09T11:09:09.591Z,0.60
2018-07-09T11:10:09.596Z,0.50
2018-07-09T11:11:09.572Z,0.70
2018-07-09T11:12:09.564Z,0.40
2018-07-09T11:13:09.550Z,0.60
2018-07-09T11:14:09.560Z,0.80
2018-07-09T11:15:09.537Z,0.60
2018-07-09T11:16:09.535Z,0.90
2018-07-09T11:17:09.512Z,0.70
2018-07-09T11:18:09.501Z,0.80
2018-07-09T11:19:09.493Z,1.40
2018-07-09T11:20:09.509Z,1.00
2018-07-09T11:21:09.471Z,0.90
2018-07-09T11:22:09.463Z,1.00
2018-07-09T11:23:09.454Z,1.30
2018-07-09T11:24:09.443Z,0.70
2018-07-09T11:25:09.433Z,0.80
2018-07-09T11:26:09.442Z,0.60
2018-07-09T11:27:09.414Z,0.70
2018-07-09T11:28:09.409Z,0.60
2018-07-09T11:29:09.399Z,0.70
2018-07-09T11:30:09.382Z,0.70
2018-07-09T11:31:09.373Z,0.70
2018-07-09T11:32:09.384Z,0.80
2018-07-09T11:33:09.355Z,0.80
2018-07-09T11:34:09.346Z,0.60
2018-07-09T11:35:09.332Z,0.70
2018-07-09T11:36:09.421Z,0.50
2018-07-09T11:37:09.312Z,0.40
2018-07-09T11:38:09.330Z,0.80
2018-07-09T11:39:09.293Z,0.60
2018-07-09T11:40:09.311Z,0.90
2018-07-09T11:41:09.277Z,0.50
2018-07-09T11:42:09.281Z,0.70
2018-07-09T11:43:09.254Z,0.70
2018-07-09T11:44:09.304Z,0.80
2018-07-09T11:45:09.233Z,0.90
2018-07-09T11:46:09.226Z,0.70
2018-07-09T11:47:09.221Z,0.80
2018-07-09T11:48:09.200Z,0.80
2018-07-09T11:49:09.193Z,0.80
2018-07-09T11:50:09.211Z,0.80
2018-07-09T11:51:09.183Z,0.60
2018-07-09T11:52:09.172Z,0.60
2018-07-09T11:53:09.152Z,0.50
2018-07-09T11:54:09.136Z,0.70
2018-07-09T11:55:09.126Z,0.60
2018-07-09T11:56:09.144Z,1.00
2018-07-09T11:57:09.113Z,0.90
2018-07-09T11:58:09.096Z,0.70
2018-07-09T11:59:09.087Z,0.70
2018-07-09T12:00:09.076Z,0.70
2018-07-09T12:01:09.067Z,1.10
2018-07-09T12:02:09.080Z,0.70
2018-07-09T12:03:09.053Z,1.30
2018-07-09T12:04:09.035Z,0.70
2018-07-09T12:05:09.029Z,0.60
2018-07-09T12:06:09.015Z,0.80
2018-07-09T12:07:09.007Z,0.70
2018-07-09T12:08:09.015Z,1.00
2018-07-09T12:09:08.993Z,0.90
2018-07-09T12:10:08.981Z,0.90
2018-07-09T12:11:08.969Z,0.80
2018-07-09T12:12:08.954Z,0.60
2018-07-09T12:13:08.942Z,0.80
2018-07-09T12:14:08.951Z,0.60
2018-07-09T12:15:08.929Z,0.40
2018-07-09T12:16:08.910Z,0.60
2018-07-09T12:17:08.900Z,0.40
2018-07-09T12:18:08.890Z,0.80
2018-07-09T12:19:09.412Z,0.70
2018-07-09T12:20:09.655Z,0.60
2018-07-09T12:21:08.863Z,0.60
2018-07-09T12:22:08.848Z,0.60
2018-07-09T12:23:08.847Z,0.70
2018-07-09T12:24:08.825Z,0.80
2018-07-09T12:25:08.823Z,0.50
2018-07-09T12:26:08.832Z,0.60
2018-07-09T12:27:08.799Z,0.80
2018-07-09T12:28:08.784Z,0.70
2018-07-09T12:29:08.913Z,0.50
2018-07-09T12:30:08.762Z,0.60
2018-07-09T12:31:08.751Z,0.70
2018-07-09T12:32:08.800Z,0.40
2018-07-09T12:33:08.732Z,0.60
2018-07-09T12:34:08.719Z,0.50
2018-07-09T12:35:08.709Z,0.70
2018-07-09T12:36:08.747Z,0.80
2018-07-09T12:37:08.711Z,0.50
2018-07-09T12:38:08.735Z,0.80
2018-07-09T12:39:08.670Z,0.80
2018-07-09T12:40:08.655Z,0.80
2018-07-09T12:41:08.645Z,0.80
2018-07-09T12:42:08.634Z,0.90
2018-07-09T12:43:08.626Z,0.70
2018-07-09T12:44:08.635Z,1.20
2018-07-09T12:45:08.604Z,0.60
2018-07-09T12:46:08.593Z,1.00
2018-07-09T12:47:08.584Z,0.80
2018-07-09T12:48:08.574Z,0.70
2018-07-09T12:49:08.563Z,0.60
2018-07-09T12:50:08.581Z,1.00
2018-07-09T12:51:08.543Z,0.80
2018-07-09T12:52:08.533Z,0.70
2018-07-09T12:53:08.519Z,0.80
2018-07-09T12:54:08.508Z,0.80
2018-07-09T12:55:08.501Z,0.80
2018-07-09T12:56:08.535Z,0.90
2018-07-09T12:57:08.478Z,0.50
2018-07-09T12:58:08.466Z,1.00
2018-07-09T12:59:08.455Z,0.60
2018-07-09T13:00:08.444Z,1.10
2018-07-09T13:01:08.435Z,0.80
2018-07-09T13:02:08.450Z,0.90
2018-07-09T13:03:08.414Z,0.90
2018-07-09T13:04:08.403Z,1.10
2018-07-09T13:05:08.393Z,0.90
2018-07-09T13:06:08.383Z,1.10
2018-07-09T13:07:08.375Z,1.00
2018-07-09T13:08:08.390Z,0.90
2018-07-09T13:09:08.414Z,1.20
2018-07-09T13:10:08.340Z,1.00
2018-07-09T13:11:08.331Z,1.20
2018-07-09T13:12:08.319Z,0.90
2018-07-09T13:13:08.310Z,0.80
2018-07-09T13:14:08.324Z,0.70
2018-07-09T13:15:08.296Z,0.80
2018-07-09T13:16:08.287Z,1.20
2018-07-09T13:17:08.268Z,1.10
2018-07-09T13:18:08.285Z,1.40